Pedro Moretti

Scout - Estudiantes
20 Nov 2027
Samstag
Verarbeitung

Persönlichkeit

Anpassungsfähigkeit (9) Ehrgeiz (6) Kontroverse (12) Loyalität (16) Druck (11) Professionalität (13) Fairness (8) Temperament (10)

Profil

Trainerstil Demokratisch
Lizenz Kontinentale A
Entschlossenheit 1
Menschenführung 6
Motivation 5
Disziplin 5
Arbeitszufriedenheit
87%
Ermüdung
0%
Rolle Scout
Gehalt 24.6K p/W
Vertrag 14.03.2030

Leistung

Verhalten Gut
Trainingseffektivität
22%
Spielerentwicklung
30%
Verletzungsprävention
20%
Taktische Umsetzung
15%

Aktuell beobachtet

70
Spieler Verein Status Fähigkeit Vertrauen Beobachtet Zuletzt beobachtet Letzte Stimme
Agustín Cayetano Liverpool Montevideo Aktiv 101 / 100 40% 2 29.11.2026 -
Lautaro Lovazzano Portuguesa Aktiv 111 / 110 40% 1 29.11.2026 -
Nicolás Fernández Progreso Aktiv 114 / 120 40% 3 28.11.2026 -
Ignacio Pereira Danubio Aktiv 94 / 98 40% 1 28.11.2026 -
Juan Pablo Barinaga Patronato Aktiv 119 / 120 40% 2 23.11.2026 -
Oscar Garrido Mitre Aktiv 116 / 102 40% 1 23.11.2026 -
Leandro Umpiérrez Penarol Aktiv 117 / 109 40% 1 17.11.2026 -
Hebert Vergara Liverpool Montevideo Aktiv 92 / 91 40% 1 13.11.2026 -
Martín Sarrafiore O'Higgins Aktiv 111 / 129 40% 1 12.11.2026 -
Agustín Pereira Albion Aktiv 117 / 106 40% 1 12.11.2026 -
Enzo Vlaeminch Oriental Aktiv 84 / 105 40% 1 11.11.2026 -
Tomás González Estudiantes Aktiv 106 / 116 40% 1 10.11.2026 -
Franco Troyansky Audax Italiano Aktiv 118 / 120 40% 1 10.11.2026 -
Alan Brítez Union La Calera Aktiv 80 / 75 40% 1 09.11.2026 -
Martín Campos Ferro Carril Oeste Aktiv 124 / 133 40% 1 09.11.2026 -
Rafael Haller Liverpool Montevideo Aktiv 117 / 116 40% 3 08.11.2026 -
Ignacio Neira Rampla Juniors Aktiv 90 / 87 40% 1 08.11.2026 -
Lucas Dilelio Morelia Aktiv 85 / 70 40% 1 01.11.2026 -
Franco Díaz Temperley Aktiv 121 / 133 40% 1 31.10.2026 -
Santiago Sala Güemes Aktiv 111 / 125 40% 1 29.10.2026 -
Enzo Cabrera Danubio Aktiv 113 / 120 40% 1 29.10.2026 -
Ariel Muñoz Alianza Atletico Aktiv 105 / 93 40% 2 27.10.2026 -
Joel Torres San Luis Aktiv 95 / 96 40% 1 27.10.2026 -
Maico Quiroz Güemes Aktiv 114 / 131 40% 1 25.10.2026 -
Matías Espíndola Deportivo Maldonado Aktiv 105 / 101 40% 1 25.10.2026 -
Ramón González Almirante Brown Aktiv 119 / 113 40% 1 24.10.2026 -
Julián Cosi Madryn Aktiv 115 / 111 40% 1 24.10.2026 -
Álex de Freitas Miramar Misiones Aktiv 91 / 88 40% 1 23.10.2026 -
Jeremías Lázaro Instituto Aktiv 112 / 119 40% 1 23.10.2026 -
Pedro Silva Torrejón Gimnasia La Plata Aktiv 113 / 119 40% 1 21.10.2026 -
Braian Galván Oriental Aktiv 119 / 103 40% 2 15.10.2026 -
Facundo Silvera Montevideo City Torque Aktiv 110 / 114 40% 1 15.10.2026 -
Antonio Napolitano Agropecuario Argentino Aktiv 104 / 112 40% 1 13.10.2026 -
Augusto Gallo Fenix Aktiv 94 / 87 40% 2 11.10.2026 -
Lucio Castillo Colegiales Aktiv 102 / 104 40% 1 11.10.2026 -
Juan Sebastián Rivero Progreso Aktiv 93 / 96 40% 2 08.10.2026 -
Yvo Calleros Madryn Aktiv 123 / 99 40% 1 08.10.2026 -
Tomás Rayer Sportivo Trinidense Aktiv 91 / 109 40% 1 06.10.2026 -
Juan Pérez Racing Aktiv 99 / 99 40% 1 05.10.2026 -
Emiliano García Uruguay Montevideo Aktiv 88 / 102 40% 1 05.10.2026 -
Iván Pomba River Plate Aktiv 110 / 110 40% 1 02.10.2026 -
Andrés Sarmiento Atletico Nacional Aktiv 115 / 104 40% 1 01.10.2026 -
Santiago Homenchenko Queretaro Aktiv 92 / 117 40% 1 27.09.2026 -
Ramiro Hernandes Belgrano Aktiv 112 / 141 40% 1 25.09.2026 -
Milton Valenzuela Atlas Aktiv 117 / 95 40% 3 12.09.2026 -
Tomás Moschion Albion Aktiv 115 / 94 40% 1 12.09.2026 -
Samuel Velásquez Atletico Nacional Aktiv 109 / 108 40% 1 07.09.2026 -
Edison López Real Cartagena Aktiv 124 / 109 40% 1 05.09.2026 -
Luciano Minhondo Uruguay Montevideo Aktiv 95 / 101 40% 1 05.09.2026 -
Enrique Almeida Cerro Largo Aktiv 100 / 97 40% 2 04.09.2026 -
Déiber Caicedo Junior Aktiv 108 / 112 40% 1 03.09.2026 -
Yeferson Moreno Barranquilla Aktiv 97 / 116 40% 1 31.08.2026 -
Nicolás Ruiz Valledupar Aktiv 96 / 99 40% 1 31.08.2026 -
Esteban Rodríguez Uruguay Montevideo Aktiv 75 / 82 40% 1 30.08.2026 -
Máximo Alonso Central Espanol Aktiv 106 / 104 40% 1 30.08.2026 -
Santiago Simón Toluca Aktiv 124 / 131 40% 1 27.08.2026 -
Santiago Tamayo Santa Fe Aktiv 113 / 104 40% 1 26.08.2026 -
Brayan Murillo Envigado Aktiv 86 / 115 40% 1 26.08.2026 -
Santiago Costa Albion Aktiv 118 / 108 40% 1 24.08.2026 -
Nicolás Castro Toluca Aktiv 144 / 143 40% 1 22.08.2026 -
Leandro Méndez Colon Aktiv 103 / 91 40% 1 19.08.2026 -
Martín Pomes Sportivo Luqueno Aktiv 76 / 81 40% 1 15.08.2026 -
Éwil Murillo Santa Fe Aktiv 120 / 124 40% 1 13.08.2026 -
Álvaro Meléndez Real Cartagena Aktiv 119 / 119 40% 1 13.08.2026 -
Ayrton Castro Miramar Misiones Aktiv 101 / 90 40% 1 12.08.2026 -
Jáder Quiñónes Once Caldas Aktiv 111 / 127 40% 1 11.08.2026 -
Lorenzo Vázquez Veracruz Aktiv 69 / 83 40% 1 08.08.2026 -
Daniel Arcila Leon Aktiv 128 / 108 40% 1 02.08.2026 -
Alex Franco Olimpia Aktiv 103 / 119 40% 1 02.08.2026 -
Iván Rojas Aguilas Doradas Aktiv 117 / 123 40% 1 01.08.2026 -